createdAt,value
2023-04-21T00:01:59.249Z,11.70
2023-04-21T00:04:26.747Z,11.50
2023-04-21T00:06:54.552Z,8.90
2023-04-21T00:09:22.811Z,11.20
2023-04-21T00:11:49.766Z,11.70
2023-04-21T00:14:16.728Z,8.80
2023-04-21T00:16:43.719Z,8.80
2023-04-21T00:19:11.014Z,10.20
2023-04-21T00:21:37.892Z,11.10
2023-04-21T00:24:05.515Z,8.70
2023-04-21T00:26:32.484Z,8.60
2023-04-21T00:28:59.372Z,8.60
2023-04-21T00:31:26.396Z,11.40
2023-04-21T00:33:53.936Z,8.40
2023-04-21T00:36:20.809Z,8.40
2023-04-21T00:38:47.710Z,8.40
2023-04-21T00:41:14.621Z,8.40
2023-04-21T00:44:01.754Z,8.30
2023-04-21T00:46:29.714Z,8.30
2023-04-21T00:48:58.050Z,8.30
2023-04-21T00:51:27.110Z,8.40
2023-04-21T00:53:55.870Z,8.40
2023-04-21T00:56:22.842Z,8.30
2023-04-21T00:58:50.595Z,10.30
2023-04-21T01:01:17.590Z,8.30
2023-04-21T01:03:45.645Z,11.30
2023-04-21T01:06:12.808Z,8.30
2023-04-21T01:08:39.873Z,8.30
2023-04-21T01:11:13.880Z,10.80
2023-04-21T01:13:41.399Z,8.30
2023-04-21T01:16:08.337Z,8.30
2023-04-21T01:18:36.981Z,10.00
2023-04-21T01:21:04.754Z,10.60
2023-04-21T01:23:31.724Z,8.20
2023-04-21T01:25:58.700Z,10.70
2023-04-21T01:28:26.661Z,8.70
2023-04-21T01:30:53.810Z,8.10
2023-04-21T01:33:21.415Z,10.30
2023-04-21T01:35:48.544Z,10.40
2023-04-21T01:38:19.533Z,7.90
2023-04-21T01:40:52.118Z,10.40
2023-04-21T01:43:22.209Z,7.80
2023-04-21T01:45:49.220Z,10.10
2023-04-21T01:48:16.237Z,7.80
2023-04-21T01:50:43.202Z,10.60
2023-04-21T01:53:10.395Z,10.80
2023-04-21T01:55:37.270Z,9.70
2023-04-21T01:58:04.279Z,9.10
2023-04-21T02:00:31.354Z,7.70
2023-04-21T02:02:58.436Z,7.60
2023-04-21T02:05:25.627Z,7.60
2023-04-21T02:07:52.543Z,10.10
2023-04-21T02:10:19.711Z,7.60
2023-04-21T02:12:46.619Z,7.50
2023-04-21T02:15:13.604Z,7.50
2023-04-21T02:17:40.606Z,10.30
2023-04-21T02:20:08.824Z,7.50
2023-04-21T02:22:35.757Z,7.40
2023-04-21T02:25:02.606Z,7.50
2023-04-21T02:27:29.692Z,7.50
2023-04-21T02:29:56.675Z,7.40
2023-04-21T02:32:25.955Z,7.40
2023-04-21T02:34:53.565Z,7.30
2023-04-21T02:37:21.126Z,7.30
2023-04-21T02:39:48.160Z,7.40
2023-04-21T02:42:15.112Z,7.40
2023-04-21T02:44:43.003Z,7.40
2023-04-21T02:47:10.014Z,7.40
2023-04-21T02:49:42.100Z,7.40
2023-04-21T02:52:09.123Z,7.40
2023-04-21T02:54:36.065Z,7.40
2023-04-21T02:57:03.405Z,7.40
2023-04-21T02:59:30.346Z,7.40
2023-04-21T03:01:57.248Z,7.40
2023-04-21T03:04:25.487Z,7.40
2023-04-21T03:06:53.878Z,7.30
2023-04-21T03:09:21.083Z,7.30
2023-04-21T03:11:48.133Z,9.10
2023-04-21T03:14:15.076Z,9.80
2023-04-21T03:16:42.088Z,9.70
2023-04-21T03:19:09.278Z,7.40
2023-04-21T03:21:39.207Z,9.50
2023-04-21T03:24:07.426Z,8.80
2023-04-21T03:26:34.540Z,7.30
2023-04-21T03:29:01.475Z,7.30
2023-04-21T03:31:28.451Z,7.30
2023-04-21T03:33:55.414Z,7.30
2023-04-21T03:36:22.305Z,7.30
2023-04-21T03:38:49.202Z,8.90
2023-04-21T03:41:16.317Z,7.40
2023-04-21T03:43:43.316Z,7.60
2023-04-21T03:46:21.885Z,7.40
2023-04-21T03:48:49.218Z,7.40
2023-04-21T03:51:16.123Z,8.30
2023-04-21T03:53:43.124Z,7.60
2023-04-21T03:56:10.190Z,7.40
2023-04-21T03:58:37.296Z,7.40
2023-04-21T04:01:07.858Z,8.50
2023-04-21T04:03:35.019Z,9.00
2023-04-21T04:06:04.054Z,7.30
2023-04-21T04:08:31.362Z,7.30
2023-04-21T04:10:58.350Z,7.30
2023-04-21T04:13:26.541Z,7.20
2023-04-21T04:15:53.992Z,8.50
2023-04-21T04:18:21.447Z,7.20
2023-04-21T04:20:48.462Z,7.30
2023-04-21T04:23:15.373Z,8.90
2023-04-21T04:25:42.820Z,7.20
2023-04-21T04:28:10.557Z,7.20
2023-04-21T04:30:37.614Z,7.20
2023-04-21T04:33:05.049Z,7.20
2023-04-21T04:35:32.042Z,7.20
2023-04-21T04:37:59.189Z,7.20
2023-04-21T04:40:26.310Z,7.20
2023-04-21T04:42:53.278Z,8.50
2023-04-21T04:45:22.312Z,7.30
2023-04-21T04:47:50.265Z,7.70
2023-04-21T04:50:17.164Z,7.40
2023-04-21T04:52:46.943Z,8.50
2023-04-21T04:55:14.450Z,7.50
2023-04-21T04:57:41.701Z,8.10
2023-04-21T05:00:11.387Z,7.60
2023-04-21T05:02:39.234Z,7.60
2023-04-21T05:05:08.183Z,7.70
2023-04-21T05:07:35.402Z,7.80
2023-04-21T05:10:04.460Z,10.40
2023-04-21T05:12:34.396Z,7.90
2023-04-21T05:15:01.386Z,10.60
2023-04-21T05:17:30.984Z,10.10
2023-04-21T05:19:58.165Z,8.40
2023-04-21T05:22:26.077Z,8.20
2023-04-21T05:24:54.798Z,8.30
2023-04-21T05:27:21.708Z,8.30
2023-04-21T05:29:48.896Z,8.40
2023-04-21T05:32:15.959Z,10.90
2023-04-21T05:34:42.970Z,10.80
2023-04-21T05:37:12.159Z,9.80
2023-04-21T05:39:39.182Z,8.70
2023-04-21T05:42:06.656Z,11.20
2023-04-21T05:44:33.595Z,8.90
2023-04-21T05:47:00.509Z,11.50
2023-04-21T05:49:27.608Z,9.00
2023-04-21T05:51:54.513Z,11.00
2023-04-21T05:54:21.707Z,10.90
2023-04-21T05:56:48.879Z,9.20
2023-04-21T05:59:16.117Z,12.00
2023-04-21T06:01:43.745Z,11.10
2023-04-21T06:04:11.058Z,9.30
2023-04-21T06:06:38.252Z,11.10
2023-04-21T06:09:05.697Z,9.40
2023-04-21T06:11:33.433Z,9.40
2023-04-21T06:14:01.794Z,11.50
2023-04-21T06:16:29.379Z,9.80
2023-04-21T06:18:58.934Z,11.00
2023-04-21T06:21:25.949Z,12.00
2023-04-21T06:23:52.865Z,9.70
2023-04-21T06:26:19.796Z,12.50
2023-04-21T06:28:46.768Z,12.60
2023-04-21T06:31:16.260Z,9.80
2023-04-21T06:33:43.267Z,9.90
2023-04-21T06:36:10.192Z,10.00
2023-04-21T06:38:37.149Z,10.40
2023-04-21T06:41:04.587Z,10.00
2023-04-21T06:43:31.643Z,12.20
2023-04-21T06:45:58.694Z,10.20
2023-04-21T06:48:26.436Z,10.20
2023-04-21T06:50:53.336Z,12.00
2023-04-21T06:53:21.710Z,12.10
2023-04-21T06:55:49.202Z,11.70
2023-04-21T06:58:16.269Z,10.50
2023-04-21T07:00:43.302Z,12.20
2023-04-21T07:03:10.482Z,13.50
2023-04-21T07:05:37.737Z,12.20
2023-04-21T07:08:04.681Z,12.70
2023-04-21T07:10:31.994Z,10.90
2023-04-21T07:12:59.011Z,11.70
2023-04-21T07:15:26.020Z,12.90
2023-04-21T07:17:53.076Z,13.10
2023-04-21T07:20:20.124Z,13.00
2023-04-21T07:22:47.118Z,12.90
2023-04-21T07:25:14.102Z,13.10
2023-04-21T07:27:41.164Z,12.70
2023-04-21T07:30:08.746Z,11.80
2023-04-21T07:32:37.407Z,11.90
2023-04-21T07:35:06.366Z,12.20
2023-04-21T07:37:33.369Z,12.10
2023-04-21T07:40:00.319Z,12.30
2023-04-21T07:42:27.371Z,12.30
2023-04-21T07:44:55.951Z,12.40
2023-04-21T07:47:23.096Z,12.50
2023-04-21T07:49:50.116Z,13.80
2023-04-21T07:52:17.199Z,12.80
2023-04-21T07:54:44.236Z,14.10
2023-04-21T07:57:11.555Z,13.30
2023-04-21T07:59:38.656Z,13.40
2023-04-21T08:02:05.968Z,12.80
2023-04-21T08:04:33.214Z,12.80
2023-04-21T08:07:00.530Z,13.00
2023-04-21T08:09:28.074Z,13.40
2023-04-21T08:11:55.338Z,13.80
2023-04-21T08:14:22.432Z,13.40
2023-04-21T08:16:49.817Z,13.40
2023-04-21T08:19:16.932Z,13.40
2023-04-21T08:21:44.001Z,13.30
2023-04-21T08:24:10.946Z,13.60
2023-04-21T08:26:37.929Z,13.20
2023-04-21T08:29:07.496Z,14.00
2023-04-21T08:31:34.657Z,13.40
2023-04-21T08:34:03.022Z,13.50
2023-04-21T08:36:44.901Z,13.80
2023-04-21T08:39:11.872Z,14.50
2023-04-21T08:41:42.873Z,14.40
2023-04-21T08:44:11.638Z,14.00
2023-04-21T08:46:39.999Z,14.20
2023-04-21T08:49:10.120Z,14.30
2023-04-21T08:51:37.162Z,14.60
2023-04-21T08:54:04.165Z,14.60
2023-04-21T08:56:31.218Z,14.80
2023-04-21T08:58:58.162Z,14.90
2023-04-21T09:01:25.209Z,15.80
2023-04-21T09:03:52.280Z,15.90
2023-04-21T09:06:19.771Z,15.50
2023-04-21T09:08:57.657Z,15.70
2023-04-21T09:11:25.652Z,15.60
2023-04-21T09:13:57.042Z,16.30
2023-04-21T09:16:23.937Z,15.90
2023-04-21T09:18:51.573Z,16.00
2023-04-21T09:21:19.881Z,16.10
2023-04-21T09:23:49.920Z,16.20
2023-04-21T09:26:19.791Z,16.40
2023-04-21T09:28:48.721Z,16.40
2023-04-21T09:31:19.902Z,16.50
2023-04-21T09:33:58.842Z,16.60
2023-04-21T09:36:32.100Z,16.70
2023-04-21T09:39:29.016Z,16.90
2023-04-21T09:41:49.836Z,17.00
2023-04-21T09:44:18.200Z,17.10
2023-04-21T09:46:52.234Z,17.20
2023-04-21T09:49:24.076Z,17.40
2023-04-21T09:54:30.301Z,17.60
2023-04-21T09:57:04.125Z,17.70
2023-04-21T09:59:38.562Z,17.70
2023-04-21T10:02:08.187Z,17.70
2023-04-21T10:04:38.184Z,17.70
2023-04-21T10:07:06.514Z,17.70
2023-04-21T10:09:49.232Z,17.70
2023-04-21T10:12:17.407Z,17.80
2023-04-21T10:14:44.381Z,17.90
2023-04-21T10:17:11.878Z,18.10
2023-04-21T10:19:50.336Z,18.20
2023-04-21T10:22:32.677Z,18.20
2023-04-21T10:25:04.406Z,18.30
2023-04-21T10:27:40.728Z,18.50
2023-04-21T10:30:20.939Z,18.80
2023-04-21T10:32:48.433Z,19.00
2023-04-21T10:35:22.401Z,19.20
2023-04-21T10:37:51.455Z,19.30
2023-04-21T10:40:43.072Z,19.50
2023-04-21T10:43:47.208Z,19.60
2023-04-21T10:46:41.452Z,19.70
2023-04-21T10:49:21.286Z,19.80
2023-04-21T10:52:03.340Z,20.00
2023-04-21T10:54:45.881Z,20.30
2023-04-21T10:57:19.503Z,20.50
2023-04-21T10:59:48.303Z,20.80
2023-04-21T11:02:17.386Z,21.10
2023-04-21T11:04:48.611Z,21.50
2023-04-21T11:07:23.221Z,21.70
2023-04-21T11:10:02.283Z,21.90
2023-04-21T11:12:32.112Z,22.20
2023-04-21T11:14:59.104Z,22.50
2023-04-21T11:17:26.593Z,22.80
2023-04-21T11:19:56.060Z,23.10
2023-04-21T11:22:27.224Z,23.50
2023-04-21T11:24:56.502Z,23.70
2023-04-21T11:27:26.723Z,23.90
2023-04-21T11:29:53.784Z,23.90
2023-04-21T11:32:21.342Z,23.90
2023-04-21T11:34:48.408Z,23.80
2023-04-21T11:37:34.343Z,23.60
2023-04-21T11:40:01.671Z,23.20
2023-04-21T11:42:29.326Z,22.80
2023-04-21T11:44:57.162Z,22.40
2023-04-21T11:47:28.515Z,22.10
2023-04-21T11:49:58.454Z,21.80
2023-04-21T11:52:32.829Z,21.60
2023-04-21T11:55:12.964Z,21.30
2023-04-21T11:57:41.119Z,21.20
2023-04-21T12:00:15.362Z,21.00
2023-04-21T12:02:44.131Z,20.80
2023-04-21T12:05:13.407Z,20.80
2023-04-21T12:07:48.887Z,20.80
2023-04-21T12:10:19.998Z,20.80
2023-04-21T12:12:47.861Z,20.70
2023-04-21T12:15:22.888Z,20.80
2023-04-21T12:17:54.535Z,20.80
2023-04-21T12:20:26.494Z,20.90
2023-04-21T12:22:53.607Z,20.90
2023-04-21T12:25:20.603Z,21.00
2023-04-21T12:27:58.547Z,21.20
2023-04-21T12:30:25.677Z,21.40
2023-04-21T12:32:54.339Z,21.60
2023-04-21T12:35:22.530Z,21.70
2023-04-21T12:37:49.583Z,21.80
2023-04-21T12:40:16.411Z,22.00
2023-04-21T12:42:43.342Z,22.20
2023-04-21T12:45:10.785Z,22.30
2023-04-21T12:47:37.823Z,22.40
2023-04-21T12:50:05.622Z,22.30
2023-04-21T12:52:32.557Z,22.20
2023-04-21T12:54:59.534Z,22.10
2023-04-21T12:57:26.842Z,21.90
2023-04-21T12:59:53.786Z,21.80
2023-04-21T13:02:20.895Z,21.80
2023-04-21T13:04:48.162Z,21.90
2023-04-21T13:07:16.338Z,21.80
2023-04-21T13:09:43.395Z,21.70
2023-04-21T13:12:10.557Z,21.50
2023-04-21T13:14:37.489Z,21.40
2023-04-21T13:17:04.414Z,21.30
2023-04-21T13:19:31.593Z,21.10
2023-04-21T13:21:58.868Z,20.90
2023-04-21T13:24:26.813Z,20.80
2023-04-21T13:26:53.805Z,20.70
2023-04-21T13:29:20.784Z,20.60
2023-04-21T13:31:47.784Z,20.60
2023-04-21T13:34:14.776Z,20.50
2023-04-21T13:36:41.831Z,20.50
2023-04-21T13:39:12.025Z,20.50
2023-04-21T13:41:39.213Z,20.60
2023-04-21T13:44:06.385Z,20.50
2023-04-21T13:46:33.535Z,20.40
2023-04-21T13:49:00.653Z,20.20
2023-04-21T13:51:27.765Z,20.10
2023-04-21T13:53:54.793Z,20.00
2023-04-21T13:56:22.018Z,19.90
2023-04-21T13:58:49.058Z,19.90
2023-04-21T14:01:16.963Z,19.90
2023-04-21T14:03:45.285Z,19.90
2023-04-21T14:06:12.535Z,19.80
2023-04-21T14:08:39.596Z,19.80
2023-04-21T14:11:06.558Z,19.90
2023-04-21T14:13:39.534Z,20.00
2023-04-21T14:16:11.877Z,20.10
2023-04-21T14:18:44.429Z,20.10
2023-04-21T14:21:14.441Z,20.10
2023-04-21T14:23:41.428Z,20.00
2023-04-21T14:26:08.359Z,20.10
2023-04-21T14:28:35.631Z,20.10
2023-04-21T14:31:02.641Z,20.10
2023-04-21T14:33:30.096Z,20.20
2023-04-21T14:35:57.100Z,20.20
2023-04-21T14:38:24.529Z,20.20
2023-04-21T14:40:54.509Z,20.20
2023-04-21T14:43:22.292Z,20.30
2023-04-21T14:45:49.431Z,20.40
2023-04-21T14:48:16.541Z,20.40
2023-04-21T14:50:43.856Z,20.50
2023-04-21T14:53:11.199Z,20.50
2023-04-21T14:55:38.123Z,20.50
2023-04-21T14:58:05.045Z,20.60
2023-04-21T15:00:32.108Z,20.60
2023-04-21T15:02:59.361Z,20.60
2023-04-21T15:05:26.422Z,20.70
2023-04-21T15:07:53.418Z,20.90
2023-04-21T15:10:20.521Z,21.00
2023-04-21T15:12:47.793Z,21.40
2023-04-21T15:15:14.756Z,21.70
2023-04-21T15:17:41.759Z,22.00
2023-04-21T15:20:10.224Z,22.50
2023-04-21T15:22:37.308Z,23.20
2023-04-21T15:25:04.684Z,23.80
2023-04-21T15:27:31.720Z,23.90
2023-04-21T15:29:58.890Z,23.90
2023-04-21T15:32:26.269Z,23.70
2023-04-21T15:34:53.338Z,23.40
2023-04-21T15:37:24.180Z,23.00
2023-04-21T15:39:52.013Z,22.70
2023-04-21T15:42:18.907Z,22.80
2023-04-21T15:44:47.196Z,23.10
2023-04-21T15:47:16.552Z,23.30
2023-04-21T15:49:43.857Z,23.20
2023-04-21T15:52:11.343Z,22.90
2023-04-21T15:54:38.600Z,22.70
2023-04-21T15:57:05.882Z,22.40
2023-04-21T15:59:33.007Z,22.10
2023-04-21T16:02:00.888Z,21.80
2023-04-21T16:04:28.521Z,21.60
2023-04-21T16:06:56.097Z,21.10
2023-04-21T16:09:23.652Z,21.10
2023-04-21T16:11:51.444Z,20.90
2023-04-21T16:14:19.150Z,20.70
2023-04-21T16:16:46.411Z,20.60
2023-04-21T16:19:13.693Z,20.50
2023-04-21T16:21:40.981Z,20.30
2023-04-21T16:24:08.936Z,20.10
2023-04-21T16:26:36.841Z,20.00
2023-04-21T16:29:04.026Z,19.80
2023-04-21T16:31:31.580Z,19.60
2023-04-21T16:34:00.454Z,19.50
2023-04-21T16:36:28.879Z,19.30
2023-04-21T16:38:56.419Z,19.20
2023-04-21T16:41:23.639Z,19.10
2023-04-21T16:43:50.804Z,19.00
2023-04-21T16:46:18.377Z,18.80
2023-04-21T16:48:46.177Z,18.70
2023-04-21T16:51:13.281Z,18.60
2023-04-21T16:53:42.185Z,18.50
2023-04-21T16:56:09.601Z,18.40
2023-04-21T16:58:37.750Z,18.20
2023-04-21T17:01:07.428Z,18.00
2023-04-21T17:03:34.842Z,17.90
2023-04-21T17:06:04.565Z,17.80
2023-04-21T17:08:31.486Z,17.70
2023-04-21T17:10:59.995Z,17.60
2023-04-21T17:13:27.124Z,17.60
2023-04-21T17:15:54.011Z,17.40
2023-04-21T17:18:20.991Z,17.30
2023-04-21T17:20:47.910Z,17.20
2023-04-21T17:23:15.039Z,17.20
2023-04-21T17:25:41.928Z,17.10
2023-04-21T17:28:08.847Z,17.00
2023-04-21T17:30:36.316Z,16.90
2023-04-21T17:33:15.501Z,16.70
2023-04-21T17:36:01.791Z,16.60
2023-04-21T17:38:30.079Z,16.40
2023-04-21T17:40:57.001Z,16.30
2023-04-21T17:43:24.418Z,16.40
2023-04-21T17:45:52.361Z,16.00
2023-04-21T17:48:20.119Z,16.00
2023-04-21T17:50:47.055Z,15.80
2023-04-21T17:53:14.014Z,15.60
2023-04-21T17:55:40.966Z,15.50
2023-04-21T17:58:10.811Z,16.00
2023-04-21T18:00:39.157Z,15.30
2023-04-21T18:03:06.642Z,15.20
2023-04-21T18:05:34.320Z,15.30
2023-04-21T18:08:02.064Z,15.00
2023-04-21T18:10:30.005Z,15.60
2023-04-21T18:12:57.923Z,15.90
2023-04-21T18:15:25.265Z,14.70
2023-04-21T18:17:53.137Z,14.70
2023-04-21T18:20:20.840Z,15.40
2023-04-21T18:22:49.073Z,14.40
2023-04-21T18:25:20.232Z,14.30
2023-04-21T18:27:51.530Z,14.20
2023-04-21T18:30:18.538Z,14.20
2023-04-21T18:32:45.572Z,15.60
2023-04-21T18:35:12.535Z,13.90
2023-04-21T18:37:39.402Z,13.80
2023-04-21T18:40:07.359Z,13.80
2023-04-21T18:42:34.351Z,13.70
2023-04-21T18:45:04.246Z,14.20
2023-04-21T18:47:31.877Z,14.50
2023-04-21T18:49:58.846Z,14.20
2023-04-21T18:52:25.845Z,13.60
2023-04-21T18:54:52.776Z,14.20
2023-04-21T18:57:19.754Z,13.50
2023-04-21T18:59:46.671Z,13.40
2023-04-21T19:02:14.148Z,13.40
2023-04-21T19:04:43.633Z,14.80
2023-04-21T19:07:11.445Z,14.30
2023-04-21T19:09:38.627Z,14.30
2023-04-21T19:12:05.734Z,14.90
2023-04-21T19:14:42.388Z,13.10
2023-04-21T19:17:13.003Z,13.40
2023-04-21T19:19:39.899Z,13.10
2023-04-21T19:22:06.831Z,13.70
2023-04-21T19:24:33.920Z,13.10
2023-04-21T19:27:06.022Z,13.00
2023-04-21T19:29:33.396Z,13.00
2023-04-21T19:32:00.455Z,13.20
2023-04-21T19:34:27.476Z,13.50
2023-04-21T19:36:54.636Z,13.10
2023-04-21T19:39:21.655Z,12.90
2023-04-21T19:41:48.626Z,14.40
2023-04-21T19:44:15.535Z,13.90
2023-04-21T19:46:43.082Z,13.50
2023-04-21T19:49:14.156Z,13.80
2023-04-21T19:51:41.449Z,13.10
2023-04-21T19:54:11.862Z,13.70
2023-04-21T19:56:40.275Z,12.60
2023-04-21T19:59:07.545Z,13.90
2023-04-21T20:01:34.769Z,12.60
2023-04-21T20:04:03.236Z,13.20
2023-04-21T20:06:31.609Z,12.60
2023-04-21T20:08:58.629Z,13.20
2023-04-21T20:11:28.786Z,13.50
2023-04-21T20:13:56.151Z,12.40
2023-04-21T20:16:23.812Z,12.80
2023-04-21T20:18:50.882Z,12.30
2023-04-21T20:21:17.817Z,14.20
2023-04-21T20:23:44.828Z,13.00
2023-04-21T20:26:12.261Z,12.50
2023-04-21T20:28:39.375Z,13.60
2023-04-21T20:31:06.360Z,12.10
2023-04-21T20:33:33.388Z,12.80
2023-04-21T20:36:07.277Z,12.00
2023-04-21T20:38:35.527Z,11.90
2023-04-21T20:41:03.468Z,11.80
2023-04-21T20:43:33.169Z,11.80
2023-04-21T20:46:04.318Z,13.00
2023-04-21T20:48:31.423Z,12.10
2023-04-21T20:50:58.451Z,12.30
2023-04-21T20:53:26.072Z,13.30
2023-04-21T20:55:53.387Z,13.50
2023-04-21T20:58:20.450Z,13.20
2023-04-21T21:00:47.529Z,11.40
2023-04-21T21:03:14.984Z,12.50
2023-04-21T21:05:43.744Z,11.70
2023-04-21T21:08:10.801Z,12.70
2023-04-21T21:10:37.743Z,13.30
2023-04-21T21:13:05.271Z,11.70
2023-04-21T21:15:32.251Z,11.10
2023-04-21T21:17:59.881Z,13.30
2023-04-21T21:20:27.644Z,12.30
2023-04-21T21:22:54.591Z,11.10
2023-04-21T21:25:21.554Z,11.00
2023-04-21T21:27:48.573Z,13.00
2023-04-21T21:30:15.626Z,12.20
2023-04-21T21:32:42.586Z,11.80
2023-04-21T21:35:10.326Z,11.70
2023-04-21T21:37:38.018Z,10.70
2023-04-21T21:40:06.219Z,13.00
2023-04-21T21:42:33.151Z,10.70
2023-04-21T21:45:00.967Z,10.70
2023-04-21T21:47:28.408Z,12.50
2023-04-21T21:49:57.748Z,10.60
2023-04-21T21:52:24.975Z,11.70
2023-04-21T21:54:52.697Z,12.80
2023-04-21T21:57:19.623Z,12.20
2023-04-21T21:59:47.095Z,12.40
2023-04-21T22:02:14.899Z,12.20
2023-04-21T22:04:42.942Z,12.60
2023-04-21T22:07:09.947Z,10.60
2023-04-21T22:09:38.334Z,11.90
2023-04-21T22:12:07.216Z,12.30
2023-04-21T22:14:34.520Z,10.50
2023-04-21T22:17:02.799Z,11.30
2023-04-21T22:19:30.974Z,11.90
2023-04-21T22:21:57.927Z,11.80
2023-04-21T22:24:25.012Z,10.50
2023-04-21T22:26:52.157Z,11.40
2023-04-21T22:29:19.297Z,12.30
2023-04-21T22:31:47.000Z,10.40
2023-04-21T22:34:16.624Z,10.30
2023-04-21T22:36:43.639Z,12.10
2023-04-21T22:39:10.925Z,12.60
2023-04-21T22:41:38.989Z,10.30
2023-04-21T22:44:05.959Z,12.00
2023-04-21T22:46:33.709Z,11.90
2023-04-21T22:49:03.219Z,12.00
2023-04-21T22:51:32.201Z,11.80
2023-04-21T22:54:00.333Z,12.30
2023-04-21T22:56:28.401Z,12.80
2023-04-21T22:58:55.651Z,11.50
2023-04-21T23:01:22.829Z,10.00
2023-04-21T23:03:50.111Z,10.00
2023-04-21T23:06:17.127Z,10.00
2023-04-21T23:08:44.116Z,11.40
2023-04-21T23:11:11.194Z,12.20
2023-04-21T23:13:38.368Z,11.50
2023-04-21T23:16:05.723Z,10.90
2023-04-21T23:18:32.898Z,9.70
2023-04-21T23:20:59.823Z,11.50
2023-04-21T23:23:26.758Z,10.40
2023-04-21T23:25:53.698Z,10.70
2023-04-21T23:28:20.610Z,9.60
2023-04-21T23:30:47.769Z,11.30
2023-04-21T23:33:14.828Z,9.50
2023-04-21T23:35:41.966Z,9.50
2023-04-21T23:38:08.892Z,9.50
2023-04-21T23:40:35.896Z,12.20
2023-04-21T23:43:02.878Z,11.60
2023-04-21T23:45:30.090Z,9.30
2023-04-21T23:47:57.099Z,9.20
2023-04-21T23:50:24.285Z,9.10
2023-04-21T23:52:51.287Z,9.00
2023-04-21T23:55:18.495Z,9.00
2023-04-21T23:57:46.788Z,8.90
